메인 페이지
METAR-TAF:

METAR-TAF

공항 :

요한 바오로 2세 공항

Ponta Delgada, 아조레스, 포르투갈

위도: 37-44N, 경도: 025-42W, 고도: 71m

현재 날씨관측

예보는 35분 전, 09:30시(UTC)에 발표되었습니다.
7kt
온도 18°C
습도 100%
기압 1021 hPa
시정: 8000m
고도 300ft 상공 구름 보통
고도 1200ft 상공 구름 많음

METAR: LPPD 200930Z 27007KT 8000 SCT003 BKN012 18/18 Q1021

시각: 10:05 (10:05 UTC)

예보

예보는 5 시간 5분 전, 05:00시(UTC)에 발표되었습니다.
예보 대상 시간: 20일 06시부터 21일 06시까지 (UTC)
10kt
시정 10km 이상
고도 400ft 상공 구름 조금
고도 1200ft 상공 구름 보통
일시적
20일 06시부터 20일 17시까지 (UTC)
고도 400ft 상공 구름 보통
고도 1200ft 상공 구름 많음
확률 40% :
일시적
20일 06시부터 20일 09시까지 (UTC)
시정: 2000m
고도 200ft 상공 구름 많음
이슬비, 박무
일시적
20일 17시부터 20일 20시까지 (UTC)
시정: 3000m
고도 400ft 상공 구름 보통
고도 800ft 상공 구름 많음
약한비, 이슬비, 박무
전환 중
20일 20시부터 20일 23시까지 (UTC)
13kt
고도 1500ft 상공 구름 보통
고도 3000ft 상공 구름 보통
확률 30% :
일시적
20일 23시부터 21일 06시까지 (UTC)
15kt, 순간 최대 풍속 25kt

TAF: LPPD 200500Z 2006/2106 27010KT 9999 FEW004 SCT012 TEMPO 2006/2017 SCT004 BKN012 PROB40 TEMPO 2006/2009 2000 DZ BR BKN002 TEMPO 2017/2020 3000 -RADZ BR SCT004 BKN008 BECMG 2020/2023 36013KT SCT015 SCT030 PROB30 TEMPO 2023/2106 36015G25KT

4,000개 이상의 공항 관측 자료 및 예보 (METAR 및 TAF 보고).

지도상에서 검색 가능한 기상관측소가 노란 점과 빨간 점으로 표시되어 있습니다.

기상관측소 명을 보려면 표시 위로 마우스를 이동하세요.

날씨 관측과 예보를 보려면 클릭하세요.

지도 변경 : 확대하려면 엑스 표시가 있는 녹색 버튼, 축소하려면 빼기 표시가 있는 녹색 버튼, 다음 페이지의 지도를 보려면 녹색 화살표를 클릭하세요.


METAR-TAF: